sensor_id;sensor_type;location;lat;lon;timestamp;pressure;altitude;pressure_sealevel;temperature;humidity
39699;BME280;25372;50.582;12.250;2022-11-20T00:09:59;99518.22;;;-7.44;100.00
39699;BME280;25372;50.582;12.250;2022-11-20T00:20:21;99500.19;;;-7.44;100.00
39699;BME280;25372;50.582;12.250;2022-11-20T00:30:43;99502.56;;;-7.75;100.00
39699;BME280;25372;50.582;12.250;2022-11-20T00:41:05;99512.56;;;-7.68;100.00
39699;BME280;25372;50.582;12.250;2022-11-20T00:51:28;99522.22;;;-7.74;100.00
39699;BME280;25372;50.582;12.250;2022-11-20T01:01:49;99524.50;;;-7.67;100.00
39699;BME280;25372;50.582;12.250;2022-11-20T01:12:11;99529.22;;;-7.58;100.00
39699;BME280;25372;50.582;12.250;2022-11-20T01:22:32;99527.53;;;-7.59;100.00
39699;BME280;25372;50.582;12.250;2022-11-20T01:32:55;99512.25;;;-7.62;100.00
39699;BME280;25372;50.582;12.250;2022-11-20T01:43:17;99499.94;;;-7.73;100.00
39699;BME280;25372;50.582;12.250;2022-11-20T01:53:43;99505.19;;;-7.76;100.00
39699;BME280;25372;50.582;12.250;2022-11-20T02:04:05;99492.47;;;-7.44;100.00
39699;BME280;25372;50.582;12.250;2022-11-20T02:14:29;99490.63;;;-7.93;100.00
39699;BME280;25372;50.582;12.250;2022-11-20T02:24:51;99482.66;;;-8.06;100.00
39699;BME280;25372;50.582;12.250;2022-11-20T02:35:40;99480.47;;;-7.79;100.00
39699;BME280;25372;50.582;12.250;2022-11-20T02:46:07;99489.81;;;-7.43;100.00
39699;BME280;25372;50.582;12.250;2022-11-20T02:56:28;99468.19;;;-7.74;100.00
39699;BME280;25372;50.582;12.250;2022-11-20T03:06:51;99478.19;;;-7.67;100.00
39699;BME280;25372;50.582;12.250;2022-11-20T03:17:11;99467.97;;;-7.69;100.00
39699;BME280;25372;50.582;12.250;2022-11-20T03:27:34;99458.38;;;-7.83;100.00
39699;BME280;25372;50.582;12.250;2022-11-20T03:37:57;99459.59;;;-7.73;100.00
39699;BME280;25372;50.582;12.250;2022-11-20T03:48:19;99459.59;;;-7.73;100.00
39699;BME280;25372;50.582;12.250;2022-11-20T03:58:40;99467.00;;;-7.84;100.00
39699;BME280;25372;50.582;12.250;2022-11-20T04:09:04;99459.34;;;-8.03;100.00
39699;BME280;25372;50.582;12.250;2022-11-20T04:19:24;99450.44;;;-8.13;100.00
39699;BME280;25372;50.582;12.250;2022-11-20T04:29:46;99434.91;;;-8.12;100.00
39699;BME280;25372;50.582;12.250;2022-11-20T04:40:08;99423.03;;;-7.97;100.00
39699;BME280;25372;50.582;12.250;2022-11-20T04:50:30;99420.41;;;-8.13;100.00
39699;BME280;25372;50.582;12.250;2022-11-20T05:00:51;99437.34;;;-8.09;100.00
39699;BME280;25372;50.582;12.250;2022-11-20T05:11:15;99425.59;;;-8.32;100.00
39699;BME280;25372;50.582;12.250;2022-11-20T05:21:36;99429.84;;;-8.31;100.00
39699;BME280;25372;50.582;12.250;2022-11-20T05:31:58;99429.84;;;-8.31;100.00
39699;BME280;25372;50.582;12.250;2022-11-20T05:42:19;99427.81;;;-8.42;100.00
39699;BME280;25372;50.582;12.250;2022-11-20T05:52:53;99432.59;;;-8.16;100.00
39699;BME280;25372;50.582;12.250;2022-11-20T06:03:14;99416.25;;;-7.80;100.00
39699;BME280;25372;50.582;12.250;2022-11-20T06:13:36;99409.38;;;-7.97;100.00
39699;BME280;25372;50.582;12.250;2022-11-20T06:23:58;99410.03;;;-8.11;100.00
39699;BME280;25372;50.582;12.250;2022-11-20T06:34:20;99401.19;;;-8.06;100.00
39699;BME280;25372;50.582;12.250;2022-11-20T06:44:40;99406.25;;;-7.86;100.00
39699;BME280;25372;50.582;12.250;2022-11-20T06:55:04;99405.47;;;-7.71;100.00
39699;BME280;25372;50.582;12.250;2022-11-20T07:05:25;99397.00;;;-7.73;100.00
39699;BME280;25372;50.582;12.250;2022-11-20T07:15:47;99393.47;;;-7.55;100.00
39699;BME280;25372;50.582;12.250;2022-11-20T07:26:09;99391.69;;;-7.37;100.00
39699;BME280;25372;50.582;12.250;2022-11-20T07:36:31;99387.19;;;-7.33;100.00
39699;BME280;25372;50.582;12.250;2022-11-20T07:46:52;99372.66;;;-7.18;100.00
39699;BME280;25372;50.582;12.250;2022-11-20T07:57:14;99384.41;;;-6.96;100.00
39699;BME280;25372;50.582;12.250;2022-11-20T08:07:36;99373.66;;;-6.73;100.00
39699;BME280;25372;50.582;12.250;2022-11-20T08:18:04;99379.47;;;-6.69;100.00
39699;BME280;25372;50.582;12.250;2022-11-20T08:28:25;99371.56;;;-6.66;100.00
39699;BME280;25372;50.582;12.250;2022-11-20T08:38:48;99366.44;;;-6.36;100.00
39699;BME280;25372;50.582;12.250;2022-11-20T08:49:10;99367.53;;;-5.52;100.00
39699;BME280;25372;50.582;12.250;2022-11-20T08:59:33;99344.63;;;-4.87;98.92
39699;BME280;25372;50.582;12.250;2022-11-20T09:09:54;99319.22;;;-5.08;98.01
39699;BME280;25372;50.582;12.250;2022-11-20T09:20:16;99318.84;;;-5.02;97.24
39699;BME280;25372;50.582;12.250;2022-11-20T09:30:37;99312.25;;;-4.93;98.00
39699;BME280;25372;50.582;12.250;2022-11-20T09:41:03;99315.59;;;-4.38;96.02
39699;BME280;25372;50.582;12.250;2022-11-20T09:51:34;99302.88;;;-4.28;96.38
39699;BME280;25372;50.582;12.250;2022-11-20T10:01:59;99305.03;;;-4.09;95.30
39699;BME280;25372;50.582;12.250;2022-11-20T10:12:27;99251.44;;;-4.20;98.43
39699;BME280;25372;50.582;12.250;2022-11-20T10:23:03;99278.84;;;-3.29;94.93
39699;BME280;25372;50.582;12.250;2022-11-20T10:33:29;99226.34;;;-3.20;94.21
39699;BME280;25372;50.582;12.250;2022-11-20T10:44:01;99273.72;;;-2.11;94.29
39699;BME280;25372;50.582;12.250;2022-11-20T10:54:32;99271.94;;;-0.99;96.35
39699;BME280;25372;50.582;12.250;2022-11-20T11:04:59;99262.81;;;-0.72;93.53
39699;BME280;25372;50.582;12.250;2022-11-20T11:15:29;99248.28;;;-0.32;92.28
39699;BME280;25372;50.582;12.250;2022-11-20T11:25:57;99239.63;;;-0.64;91.34
39699;BME280;25372;50.582;12.250;2022-11-20T11:36:22;99221.09;;;-1.03;92.90
39699;BME280;25372;50.582;12.250;2022-11-20T11:46:55;99201.38;;;-1.38;93.69
39699;BME280;25372;50.582;12.250;2022-11-20T11:57:21;99194.66;;;-1.52;94.84
39699;BME280;25372;50.582;12.250;2022-11-20T12:07:47;99185.69;;;-1.15;94.74
39699;BME280;25372;50.582;12.250;2022-11-20T12:18:15;99172.69;;;-1.15;93.14
39699;BME280;25372;50.582;12.250;2022-11-20T12:28:44;99168.03;;;-1.00;93.49
39699;BME280;25372;50.582;12.250;2022-11-20T12:39:22;99189.97;;;-0.93;95.38
39699;BME280;25372;50.582;12.250;2022-11-20T12:49:54;99175.97;;;-0.29;92.60
39699;BME280;25372;50.582;12.250;2022-11-20T13:00:20;99170.22;;;-0.23;93.33
39699;BME280;25372;50.582;12.250;2022-11-20T13:10:46;99144.22;;;-0.44;95.48
39699;BME280;25372;50.582;12.250;2022-11-20T13:21:15;99164.56;;;-0.28;95.54
39699;BME280;25372;50.582;12.250;2022-11-20T13:31:41;99138.28;;;-0.25;94.93
39699;BME280;25372;50.582;12.250;2022-11-20T13:42:20;99148.94;;;-0.38;94.95
39699;BME280;25372;50.582;12.250;2022-11-20T13:52:53;99144.53;;;-0.37;93.03
39699;BME280;25372;50.582;12.250;2022-11-20T14:03:19;99146.75;;;-0.32;92.95
39699;BME280;25372;50.582;12.250;2022-11-20T14:13:52;99147.06;;;-0.57;91.50
39699;BME280;25372;50.582;12.250;2022-11-20T14:24:19;99148.66;;;-0.65;92.21
39699;BME280;25372;50.582;12.250;2022-11-20T14:34:44;99151.06;;;-1.16;94.53
39699;BME280;25372;50.582;12.250;2022-11-20T14:45:10;99152.00;;;-1.82;97.72
39699;BME280;25372;50.582;12.250;2022-11-20T14:55:35;99135.03;;;-2.08;99.27
39699;BME280;25372;50.582;12.250;2022-11-20T15:05:56;99152.00;;;-2.61;100.00
39699;BME280;25372;50.582;12.250;2022-11-20T15:16:20;99141.50;;;-3.18;100.00
39699;BME280;25372;50.582;12.250;2022-11-20T15:26:42;99116.94;;;-3.01;100.00
39699;BME280;25372;50.582;12.250;2022-11-20T15:37:04;99128.53;;;-3.29;100.00
39699;BME280;25372;50.582;12.250;2022-11-20T15:47:27;99120.28;;;-3.58;100.00
39699;BME280;25372;50.582;12.250;2022-11-20T15:57:50;99122.16;;;-3.36;100.00
39699;BME280;25372;50.582;12.250;2022-11-20T16:08:11;99132.59;;;-3.49;100.00
39699;BME280;25372;50.582;12.250;2022-11-20T16:18:33;99129.34;;;-3.64;100.00
39699;BME280;25372;50.582;12.250;2022-11-20T16:28:54;99148.06;;;-3.36;100.00
39699;BME280;25372;50.582;12.250;2022-11-20T16:39:17;99152.06;;;-4.05;100.00
39699;BME280;25372;50.582;12.250;2022-11-20T16:49:38;99151.28;;;-4.44;100.00
39699;BME280;25372;50.582;12.250;2022-11-20T17:00:00;99132.53;;;-4.34;100.00
39699;BME280;25372;50.582;12.250;2022-11-20T17:10:22;99148.75;;;-4.20;100.00
39699;BME280;25372;50.582;12.250;2022-11-20T17:20:50;99147.00;;;-4.19;100.00
39699;BME280;25372;50.582;12.250;2022-11-20T17:31:12;99140.78;;;-3.79;100.00
39699;BME280;25372;50.582;12.250;2022-11-20T17:41:35;99127.84;;;-3.79;100.00
39699;BME280;25372;50.582;12.250;2022-11-20T17:51:56;99122.06;;;-3.59;100.00
39699;BME280;25372;50.582;12.250;2022-11-20T18:02:18;99117.38;;;-3.54;100.00
39699;BME280;25372;50.582;12.250;2022-11-20T18:12:39;99099.41;;;-3.68;100.00
39699;BME280;25372;50.582;12.250;2022-11-20T18:23:01;99095.84;;;-3.78;100.00
39699;BME280;25372;50.582;12.250;2022-11-20T18:33:22;99104.66;;;-3.81;100.00
39699;BME280;25372;50.582;12.250;2022-11-20T18:43:44;99087.28;;;-4.16;100.00
39699;BME280;25372;50.582;12.250;2022-11-20T18:54:23;99100.06;;;-4.39;100.00
39699;BME280;25372;50.582;12.250;2022-11-20T19:04:46;99073.72;;;-4.82;100.00
39699;BME280;25372;50.582;12.250;2022-11-20T19:15:07;99085.19;;;-4.86;100.00
39699;BME280;25372;50.582;12.250;2022-11-20T19:25:30;99076.53;;;-4.98;100.00
39699;BME280;25372;50.582;12.250;2022-11-20T19:35:51;99075.28;;;-4.67;100.00
39699;BME280;25372;50.582;12.250;2022-11-20T19:46:14;99065.03;;;-5.20;100.00
39699;BME280;25372;50.582;12.250;2022-11-20T19:56:35;99070.09;;;-5.44;100.00
39699;BME280;25372;50.582;12.250;2022-11-20T20:06:58;99063.06;;;-5.42;100.00
39699;BME280;25372;50.582;12.250;2022-11-20T20:17:22;99056.06;;;-5.01;100.00
39699;BME280;25372;50.582;12.250;2022-11-20T20:27:44;99039.78;;;-4.52;100.00
39699;BME280;25372;50.582;12.250;2022-11-20T20:38:05;99046.94;;;-3.94;100.00
39699;BME280;25372;50.582;12.250;2022-11-20T20:48:27;99023.63;;;-3.59;100.00
39699;BME280;25372;50.582;12.250;2022-11-20T20:58:47;99016.78;;;-3.71;100.00
39699;BME280;25372;50.582;12.250;2022-11-20T21:09:10;99018.72;;;-3.86;100.00
39699;BME280;25372;50.582;12.250;2022-11-20T21:19:31;98978.56;;;-3.92;100.00
39699;BME280;25372;50.582;12.250;2022-11-20T21:29:53;98968.44;;;-3.48;100.00
39699;BME280;25372;50.582;12.250;2022-11-20T21:40:14;98927.94;;;-3.38;100.00
39699;BME280;25372;50.582;12.250;2022-11-20T21:50:36;98916.06;;;-3.29;100.00
39699;BME280;25372;50.582;12.250;2022-11-20T22:00:57;98894.84;;;-3.11;100.00
39699;BME280;25372;50.582;12.250;2022-11-20T22:11:20;98887.75;;;-2.98;100.00
39699;BME280;25372;50.582;12.250;2022-11-20T22:21:41;98877.31;;;-2.75;100.00
39699;BME280;25372;50.582;12.250;2022-11-20T22:32:04;98855.88;;;-2.77;100.00
39699;BME280;25372;50.582;12.250;2022-11-20T22:42:24;98837.44;;;-2.63;100.00
39699;BME280;25372;50.582;12.250;2022-11-20T22:52:47;98837.88;;;-2.58;100.00
39699;BME280;25372;50.582;12.250;2022-11-20T23:03:08;98819.50;;;-2.55;100.00
39699;BME280;25372;50.582;12.250;2022-11-20T23:13:30;98798.59;;;-2.53;100.00
39699;BME280;25372;50.582;12.250;2022-11-20T23:23:52;98786.59;;;-2.54;100.00
39699;BME280;25372;50.582;12.250;2022-11-20T23:34:15;98776.34;;;-2.56;100.00
39699;BME280;25372;50.582;12.250;2022-11-20T23:44:35;98772.16;;;-2.47;100.00
39699;BME280;25372;50.582;12.250;2022-11-20T23:54:58;98740.19;;;-2.48;100.00
